Aviation Digital Data Service (ADDS)

Output produced by METARs form (0937 UTC 07 December 2022)
found at http://www.aviationweather.gov/metar/data/
 
KHKS 070853Z AUTO 19006KT 9SM OVC009 21/19 A3018 RMK AO2 SLP211 T02110194 53013
KHKS 070830Z AUTO 18005KT 10SM OVC009 21/19 A3017 RMK AO2 T02110194
KHKS 070753Z AUTO 17005KT 10SM BKN011 21/19 A3016 RMK AO2 SLP206 T02060189
KHKS 070653Z AUTO 18005KT 10SM CLR 21/19 A3015 RMK AO2 SLP201 T02110189
KHKS 070553Z AUTO 18006KT 10SM FEW050 22/19 A3014 RMK AO2 SLP197 T02170189 10233 20211 402830200 51013
KHKS 070453Z AUTO 18004KT 10SM CLR 22/19 A3013 RMK AO2 SLP195 T02170189
KHKS 070353Z AUTO 17007KT 10SM CLR 22/18 A3011 RMK AO2 SLP188 T02170183
KHKS 070253Z AUTO 17005KT 10SM FEW034 22/18 A3010 RMK AO2 SLP184 T02220183 53013
KHKS 070153Z 16005KT 10SM FEW055 22/18 A3008 RMK AO2 SLP176 T02170178
KHKS 070053Z 16004KT 10SM BKN060 23/17 A3007 RMK AO2 SLP175 T02280172
KHKS 062353Z 17004KT 10SM BKN060 23/17 A3006 RMK AO2 SLP171 T02330172 10283 20228 53010
KHKS 062253Z 17005KT 10SM CLR 24/17 A3004 RMK AO2 SLP164 T02390172
KHKS 062153Z 19007KT 10SM CLR 26/17 A3004 RMK AO2 SLP163 T02610167
KHKS 062053Z 21009KT 10SM FEW040 SCT060 27/17 A3003 RMK AO2 SLP160 T02670172 55008
KHKS 061953Z 20013KT 10SM FEW040 BKN050 OVC060 27/17 A3002 RMK AO2 SLP157 T02670167
KHKS 061853Z 18008KT 10SM SCT055 26/17 A3003 RMK AO2 SLP161 T02610172
KHKS 061753Z 22009KT 180V250 10SM FEW029 BKN050 26/18 A3005 RMK AO2 SLP168 T02560178 10256 20200 58009
KHKS 061711Z 22011KT 10SM SCT027 BKN039 BKN050 25/18 A3006 RMK AO2 T02500183
KHKS 061653Z 20011G18KT 10SM BKN027 OVC038 24/18 A3007 RMK AO2 SLP174 T02440178
KHKS 061609Z 21012G21KT 10SM SCT021 24/19 A3008 RMK AO2 T02390189
KHKS 061553Z 20010KT 10SM BKN021 BKN029 BKN034 23/19 A3008 RMK AO2 SLP178 T02280189
KHKS 061536Z 20007KT 10SM BKN015 BKN022 OVC030 23/19 A3007 RMK AO2 T02330194
KHKS 061518Z 19010KT 10SM BKN014 OVC021 22/19 A3007 RMK AO2 T02220194
KHKS 061506Z 18009KT 10SM BKN016 BKN023 22/19 A3007 RMK AO2 T02220194
KHKS 061453Z 18008KT 10SM FEW010 SCT016 22/19 A3006 RMK AO2 SLP172 T02170194 51017
KHKS 061443Z 18007KT 10SM FEW010 SCT016 22/19 A3006 RMK AO2 T02170194
KHKS 061434Z 17008KT 10SM SCT016 SCT020 BKN025 21/19 A3006 RMK AO2 T02110189
KHKS 061425Z 17007KT 10SM SCT016 21/19 A3005 RMK AO2 T02110194
KHKS 061353Z 17006KT 10SM BKN018 BKN023 OVC050 21/19 A3005 RMK AO2 SLP166 T02110194
KHKS 061306Z 17005KT 10SM FEW008 OVC015 21/19 A3004 RMK AO2 T02060189
KHKS 061253Z 16005KT 10SM OVC015 21/19 A3003 RMK AO2 SLP162 T02060189
KHKS 061153Z AUTO 16007KT 10SM FEW008 SCT025 BKN055 20/19 A3001 RMK AO2 SLP156 T02000189 10206 20200 53009
KHKS 061125Z AUTO 15006KT 10SM FEW008 BKN015 BKN023 21/19 A3001 RMK AO2 T02060189
KHKS 061053Z AUTO 16006KT 10SM BKN017 OVC025 21/19 A3000 RMK AO2 SLP150 T02060189
KHKS 060953Z AUTO 18004KT 10SM BKN017 OVC050 21/19 A3000 RMK AO2 SLP151 T02060189
KHKS 060853Z AUTO 16007KT 10SM SCT017 BKN050 21/19 A2999 RMK AO2 SLP147 T02060189 53005
KHKS 060823Z AUTO 16007KT 10SM SCT017 OVC048 20/19 A2998 RMK AO2 T02000189
KHKS 060804Z AUTO 16006KT 10SM BKN017 BKN032 OVC048 21/19 A2998 RMK AO2 T02060189
KHKS 060745Z AUTO 17006KT 10SM SCT017 SCT024 BKN030 21/19 A2998 RMK AO2 T02060189
KHKS 060705Z AUTO 17006KT 10SM BKN019 21/19 A2998 RMK AO2 T02060189
KHKS 060653Z AUTO 16007KT 10SM SCT019 20/19 A2997 RMK AO2 SLP141 T02000189
KHKS 060614Z AUTO 18006KT 10SM OVC016 20/19 A2998 RMK AO2 T02000189
KHKS 060553Z AUTO 16007KT 9SM BKN014 20/19 A2997 RMK AO2 SLP142 T02000189 10211 20194 402220139 50005
KHKS 060549Z AUTO 16007KT 9SM BKN014 20/19 A2997 RMK AO2
KHKS 060501Z AUTO 18007KT 10SM SCT008 20/19 A2997 RMK AO2 T02000189
KHKS 060453Z AUTO 17007KT 10SM BKN010 BKN013 21/19 A2997 RMK AO2 CIG 007V011 SLP139 T02060189
KHKS 060353Z AUTO 17007KT 10SM BKN010 21/19 A2996 RMK AO2 SLP138 T02060189
KHKS 060337Z AUTO 17010KT 10SM BKN010 21/19 A2995 RMK AO2 CIG 008V012 T02060189
KHKS 060300Z AUTO 17008KT 10SM FEW010 FEW021 SCT028 21/19 A2995 RMK AO2 T02060189
KHKS 060253Z AUTO 17011KT 10SM FEW010 SCT021 BKN028 21/19 A2995 RMK AO2 SLP135 T02060189 50002
KHKS 060153Z 16007KT 10SM SCT070 21/18 A2995 RMK AO2 SLP135 T02060183
KHKS 060053Z 14005KT 10SM BKN060 OVC075 21/18 A2995 RMK AO2 SLP134 T02060183
KHKS 052353Z 14003KT 10SM OVC060 21/18 A2994 RMK AO2 SLP133 T02060178 10222 20206 51003
KHKS 052253Z 17004KT 10SM OVC070 21/18 A2994 RMK AO2 SLP133 T02110178
KHKS 052153Z 16008KT 10SM FEW017 OVC070 22/18 A2994 RMK AO2 SLP131 T02170178
KHKS 052146Z 17009KT 10SM SCT019 OVC070 22/18 A2994 RMK AO2 T02170178
KHKS 052127Z 18007KT 10SM BKN019 OVC070 22/18 A2994 RMK AO2 T02170178
KHKS 052101Z 17007KT 10SM SCT019 OVC070 22/18 A2993 RMK AO2 T02220178
KHKS 052053Z 17007KT 10SM BKN019 OVC070 22/18 A2994 RMK AO2 SLP130 T02170178 56019
KHKS 051953Z 19007KT 10SM BKN018 OVC065 22/18 A2994 RMK AO2 SLP133 T02170178
KHKS 051939Z 21009KT 10SM BKN018 OVC065 22/18 A2995 RMK AO2 T02170178
KHKS 051853Z 19009KT 10SM SCT017 OVC065 22/17 A2996 RMK AO2 SLP140 T02170172
KHKS 051753Z 19008KT 10SM BKN016 OVC060 21/17 A2999 RMK AO2 SLP149 T02110172 10211 20150 58013
KHKS 051740Z 19009KT 10SM BKN016 OVC065 21/17 A2999 RMK AO2 T02110172
KHKS 051653Z 18007KT 9SM SCT014 OVC065 21/17 A3001 RMK AO2 SLP156 T02060172
KHKS 051553Z 20006KT 7SM BKN012 OVC060 19/17 A3003 RMK AO2 SLP161 T01940172
KHKS 051500Z 19007KT 4SM BR OVC011 18/17 A3003 RMK AO2 T01830172
KHKS 051453Z 20006KT 4SM BR BKN008 OVC011 18/17 A3003 RMK AO2 CIG 005V011 SLP162 T01830172 51008
KHKS 051442Z 19007KT 3SM BR SCT006 OVC010 18/17 A3003 RMK AO2 T01780167
KHKS 051437Z 19006KT 2 1/2SM BR BKN006 OVC010 18/17 A3003 RMK AO2 CIG 004V008 T01780167
KHKS 051400Z 19007KT 2SM BR OVC003 17/17 A3003 RMK AO2 CIG 002V006 T01720167
KHKS 051353Z 19007KT 1 3/4SM BR OVC002 17/17 A3002 RMK AO2 SLP160 T01720167
KHKS 051341Z 20006KT 1 1/4SM BR OVC002 17/17 A3002 RMK AO2 T01720167
KHKS 051317Z 18007KT 1/2SM FG VV002 17/16 A3002 RMK AO2 T01670161
KHKS 051304Z 18007KT 1/4SM FG VV002 16/16 A3002 RMK AO2 T01610156
KHKS 051253Z 19005KT 1/2SM FG VV002 16/16 A3002 RMK AO2 SLP158 T01610156
KHKS 051153Z AUTO 16006KT 1/2SM FG VV002 15/14 A3000 RMK AO2 SLP153 T01500144 10150 20139 56017
KHKS 051053Z AUTO 14006KT 3/4SM BR VV003 15/14 A3001 RMK AO2 SLP157 T01500139
KHKS 050953Z AUTO 13003KT 1 1/4SM BR OVC003 14/13 A3003 RMK AO2 SLP164 T01390133
KHKS 050937Z AUTO 00000KT 1 1/4SM BR OVC003 14/13 A3004 RMK AO2 T01390133
KHKS 050930Z AUTO 00000KT 2SM BR OVC003 14/13 A3004 RMK AO2 T01390133
KHKS 050853Z AUTO 00000KT 4SM BR OVC004 14/12 A3005 RMK AO2 SLP170 T01440122 58005
KHKS 050848Z AUTO 00000KT 6SM BR OVC004 14/12 A3006 RMK AO2
KHKS 050753Z AUTO 28004KT 10SM OVC007 14/12 A3007 RMK AO2 SLP176 T01440117
KHKS 050653Z AUTO 00000KT 10SM OVC009 14/11 A3007 RMK AO2 SLP177 T01440111
KHKS 050553Z AUTO 00000KT 10SM OVC012 14/11 A3009 RMK AO2 SLP185 T01440106 10178 20139 401830111 56017
KHKS 050528Z AUTO 00000KT 10SM BKN012 OVC060 14/11 A3010 RMK AO2 T01440106
KHKS 050453Z AUTO 00000KT 10SM OVC060 14/10 A3010 RMK AO2 SLP188 T01440100
KHKS 050353Z AUTO 14005KT 10SM OVC070 14/10 A3012 RMK AO2 SLP192 T01390100
KHKS 050336Z AUTO 12004KT 10SM FEW017 SCT028 OVC070 14/10 A3013 RMK AO2 T01440100
KHKS 050253Z AUTO 00000KT 10SM FEW020 OVC028 14/10 A3014 RMK AO2 SLP202 T01440100 58002
KHKS 050153Z 35004KT 10SM OVC023 15/10 A3017 RMK AO2 SLP210 T01500100
KHKS 050053Z 34004KT 10SM OVC025 16/11 A3016 RMK AO2 SLP208 T01560111
KHKS 042353Z 00000KT 10SM OVC026 18/12 A3015 RMK AO2 SLP204 T01780117 10183 20156 56003
KHKS 042341Z 00000KT 10SM OVC028 18/12 A3015 RMK AO2 T01780117
KHKS 042253Z 00000KT 10SM OVC031 18/11 A3015 RMK AO2 SLP204 T01780111
KHKS 042153Z 13004KT 10SM CLR 18/11 A3015 RMK AO2 SLP204 T01830111
KHKS 042053Z VRB04KT 10SM FEW035 18/11 A3016 RMK AO2 SLP207 T01780111 58033
KHKS 042044Z 00000KT 10SM SCT024 BKN035 18/11 A3016 RMK AO2 T01780111
KHKS 041953Z 00000KT 10SM BKN023 OVC060 18/11 A3019 RMK AO2 SLP217 T01780111
KHKS 041853Z 36003KT 10SM BKN022 OVC028 16/10 A3023 RMK AO2 SLP231 T01610100
KHKS 041819Z 00000KT 10SM BKN025 OVC035 16/09 A3025 RMK AO2 T01610094
KHKS 041753Z 34003KT 10SM FEW037 OVC055 16/09 A3026 RMK AO2 SLP240 T01610094 10161 20111 58021
KHKS 041653Z VRB04KT 10SM OVC050 14/08 A3028 RMK AO2 SLP248 T01440083
KHKS 041553Z 00000KT 10SM FEW024 BKN035 OVC048 12/08 A3032 RMK AO2 SLP262 T01170078
KHKS 041517Z 34005KT 10SM BKN029 OVC043 12/08 A3032 RMK AO2 T01170078
KHKS 041453Z 33004KT 10SM FEW012 SCT020 OVC041 12/08 A3032 RMK AO2 SLP262 T01170083 53014
KHKS 041405Z 33004KT 10SM FEW012 OVC041 11/08 A3031 RMK AO2 T01110083
KHKS 041353Z 34004KT 10SM BKN012 OVC041 11/08 A3030 RMK AO2 SLP256 T01110083
KHKS 041306Z 00000KT 10SM FEW006 BKN010 OVC041 11/09 A3029 RMK AO2 T01110089
KHKS 041253Z 00000KT 10SM BKN006 OVC011 11/09 A3028 RMK AO2 SLP249 T01110089
KHKS 041153Z AUTO 00000KT 10SM OVC006 11/09 A3028 RMK AO2 SLP248 T01110094 10122 20111 55005
KHKS 041053Z AUTO 35004KT 10SM OVC006 11/09 A3027 RMK AO2 SLP246 T01110089
KHKS 040953Z AUTO VRB03KT 10SM OVC007 11/09 A3028 RMK AO2 SLP246 T01110089
KHKS 070910Z 0709/0806 19007KT P6SM OVC009 
     FM071500 20009KT P6SM OVC015 
     FM071700 20012G18KT P6SM BKN035 
     FM072300 18005KT P6SM BKN250